Time;durP1;ratioP1;P1;durP2;ratioP2;P2;SDS_P1;SDS_P2;PMS_P1;PMS_P2;Temp;Humidity;BMP_temperature;BMP_pressure;BME280_temperature;BME280_humidity;BME280_pressure;Samples;Min_cycle;Max_cycle;Signal;HPM_P1;HPM_P2
2022/07/08 00:01:19;;;;;;;;;;;;;;;;;;5057023;28;20326;-85
2022/07/08 00:03:44;;;;;;;;;;;;;;;;;;5058325;28;19923;-87
2022/07/08 00:06:09;;;;;;;;;;;;;;;;;;5060612;28;19923;-86
2022/07/08 00:08:36;;;;;;;;;;;;;;;;;;5073280;28;19988;-86
2022/07/08 00:11:01;;;;;;;;;;;;;;;;;;5065515;28;19924;-86
2022/07/08 00:13:26;;;;;;;;;;;;;;;;;;5057697;28;19921;-86
2022/07/08 00:15:52;;;;;;;;;;;;;;;;;;5058074;28;19916;-86
2022/07/08 00:18:17;;;;;;;;;;;;;;;;;;5039900;28;20011;-87
2022/07/08 00:20:42;;;;;;;;;;;;;;;;;;5058138;28;20014;-86
2022/07/08 00:23:09;;;;;;;;;;;;;;;;;;5057832;28;19940;-86
2022/07/08 00:25:34;;;;;;;;;;;;;;;;;;5056881;28;20025;-86
2022/07/08 00:28:00;;;;;;;;;;;;;;;;;;5047728;28;19962;-84
2022/07/08 00:30:25;;;;;;;;;;;;;;;;;;5073043;28;20297;-86
2022/07/08 00:32:50;;;;;;;;;;;;;;;;;;5056663;28;19916;-84
2022/07/08 00:35:16;;;;;;;;;;;;;;;;;;5058086;28;19960;-85
2022/07/08 00:37:41;;;;;;;;;;;;;;;;;;5057596;28;19920;-85
2022/07/08 00:40:07;;;;;;;;;;;;;;;;;;5056393;28;20330;-85
2022/07/08 00:42:32;;;;;;;;;;;;;;;;;;5055756;28;20339;-85
2022/07/08 00:44:57;;;;;;;;;;;;;;;;;;5057199;28;20357;-84
2022/07/08 00:47:23;;;;;;;;;;;;;;;;;;5058654;28;19917;-85
2022/07/08 00:49:49;;;;;;;;;;;;;;;;;;5071110;28;19920;-84
2022/07/08 00:52:14;;;;;;;;;;;;;;;;;;5059713;28;19939;-84
2022/07/08 00:54:40;;;;;;;;;;;;;;;;;;5057177;28;20336;-85
2022/07/08 00:57:05;;;;;;;;;;;;;;;;;;5055365;28;19921;-85
2022/07/08 00:59:30;;;;;;;;;;;;;;;;;;5056028;28;19917;-84
2022/07/08 01:01:57;;;;;;;;;;;;;;;;;;5055954;28;19917;-84
2022/07/08 01:04:22;;;;;;;;;;;;;;;;;;5055928;28;19917;-83
2022/07/08 01:06:48;;;;;;;;;;;;;;;;;;5056416;28;19939;-83
2022/07/08 01:09:16;;;;;;;;;;;;;;;;;;5062913;28;19976;-84
2022/07/08 01:11:44;;;;;;;;;;;;;;;;;;5066143;28;19921;-84
2022/07/08 01:14:09;;;;;;;;;;;;;;;;;;5057074;28;19917;-84
2022/07/08 01:16:36;;;;;;;;;;;;;;;;;;5055329;28;19923;-84
2022/07/08 01:19:01;;;;;;;;;;;;;;;;;;5057209;28;19921;-83
2022/07/08 01:21:26;;;;;;;;;;;;;;;;;;5056400;28;19917;-84
2022/07/08 01:23:52;;;;;;;;;;;;;;;;;;5056570;28;19967;-84
2022/07/08 01:26:17;;;;;;;;;;;;;;;;;;5056195;28;19999;-85
2022/07/08 01:28:43;;;;;;;;;;;;;;;;;;5059557;28;19918;-83
2022/07/08 01:31:08;;;;;;;;;;;;;;;;;;5073037;28;19921;-84
2022/07/08 01:33:33;;;;;;;;;;;;;;;;;;5057846;28;19948;-85
2022/07/08 01:35:59;;;;;;;;;;;;;;;;;;5055960;28;20425;-84
2022/07/08 01:38:24;;;;;;;;;;;;;;;;;;5056648;28;19917;-84
2022/07/08 01:40:49;;;;;;;;;;;;;;;;;;5056092;28;20331;-84
2022/07/08 01:43:15;;;;;;;;;;;;;;;;;;5038209;28;20246;-85
2022/07/08 01:45:40;;;;;;;;;;;;;;;;;;5055711;28;20050;-86
2022/07/08 01:48:06;;;;;;;;;;;;;;;;;;5056801;28;20215;-85
2022/07/08 01:50:31;;;;;;;;;;;;;;;;;;5064777;28;19985;-86
2022/07/08 01:52:56;;;;;;;;;;;;;;;;;;5074725;28;19921;-85
2022/07/08 01:55:22;;;;;;;;;;;;;;;;;;5055543;28;19917;-85
2022/07/08 01:57:47;;;;;;;;;;;;;;;;;;5055957;28;19923;-85
2022/07/08 02:00:13;;;;;;;;;;;;;;;;;;5055819;28;19917;-85
2022/07/08 02:02:38;;;;;;;;;;;;;;;;;;5055872;28;19947;-84
2022/07/08 02:05:03;;;;;;;;;;;;;;;;;;5056014;28;19917;-86
2022/07/08 02:07:31;;;;;;;;;;;;;;;;;;5056008;28;20007;-85
2022/07/08 02:09:56;;;;;;;;;;;;;;;;;;5062016;28;19921;-86
2022/07/08 02:12:22;;;;;;;;;;;;;;;;;;5071956;28;19909;-86
2022/07/08 02:14:51;;;;;;;;;;;;;;;;;;5037915;28;19999;-85
2022/07/08 02:17:17;;;;;;;;;;;;;;;;;;5055217;28;19952;-85
2022/07/08 02:19:42;;;;;;;;;;;;;;;;;;5055939;28;19919;-87
2022/07/08 02:22:08;;;;;;;;;;;;;;;;;;5055890;28;19970;-85
2022/07/08 02:24:33;;;;;;;;;;;;;;;;;;5055659;28;19917;-86
2022/07/08 02:26:59;;;;;;;;;;;;;;;;;;5055999;28;19920;-86
2022/07/08 02:29:24;;;;;;;;;;;;;;;;;;5061496;28;20004;-85
2022/07/08 02:31:49;;;;;;;;;;;;;;;;;;5068552;28;19966;-85
2022/07/08 02:34:15;;;;;;;;;;;;;;;;;;5061550;28;19917;-86
2022/07/08 02:36:40;;;;;;;;;;;;;;;;;;5058156;28;19916;-85
2022/07/08 02:39:05;;;;;;;;;;;;;;;;;;5037305;28;19921;-87
2022/07/08 02:41:31;;;;;;;;;;;;;;;;;;5054100;28;20015;-86
2022/07/08 02:43:56;;;;;;;;;;;;;;;;;;5055874;28;19920;-85
2022/07/08 02:46:21;;;;;;;;;;;;;;;;;;5055114;28;19956;-86
2022/07/08 02:48:47;;;;;;;;;;;;;;;;;;5055152;28;19917;-84
2022/07/08 02:51:12;;;;;;;;;;;;;;;;;;5060947;28;19920;-85
2022/07/08 02:53:37;;;;;;;;;;;;;;;;;;5063116;28;19921;-85
2022/07/08 02:56:03;;;;;;;;;;;;;;;;;;5054716;28;19973;-85
2022/07/08 02:58:28;;;;;;;;;;;;;;;;;;5054843;28;19917;-85
2022/07/08 03:00:53;;;;;;;;;;;;;;;;;;5054683;28;19967;-85
2022/07/08 03:03:19;;;;;;;;;;;;;;;;;;5053632;28;19921;-85
2022/07/08 03:05:44;;;;;;;;;;;;;;;;;;5054728;28;19924;-85
2022/07/08 03:08:09;;;;;;;;;;;;;;;;;;5055071;28;19917;-88
2022/07/08 03:10:35;;;;;;;;;;;;;;;;;;5054471;28;19917;-86
2022/07/08 03:13:00;;;;;;;;;;;;;;;;;;5069972;28;19971;-85
2022/07/08 03:15:25;;;;;;;;;;;;;;;;;;5058030;28;19917;-85
2022/07/08 03:17:51;;;;;;;;;;;;;;;;;;5054638;28;19917;-86
2022/07/08 03:20:17;;;;;;;;;;;;;;;;;;5054400;28;19917;-84
2022/07/08 03:22:42;;;;;;;;;;;;;;;;;;5054248;28;19999;-85
2022/07/08 03:25:08;;;;;;;;;;;;;;;;;;5053182;28;19917;-85
2022/07/08 03:27:33;;;;;;;;;;;;;;;;;;5059450;28;19923;-86
2022/07/08 03:29:58;;;;;;;;;;;;;;;;;;5061272;28;20018;-85
2022/07/08 03:32:24;;;;;;;;;;;;;;;;;;5069389;28;19921;-85
2022/07/08 03:34:49;;;;;;;;;;;;;;;;;;5053261;28;19917;-85
2022/07/08 03:37:15;;;;;;;;;;;;;;;;;;5061059;28;19917;-86
2022/07/08 03:39:40;;;;;;;;;;;;;;;;;;5059672;28;20016;-85
2022/07/08 03:42:05;;;;;;;;;;;;;;;;;;5060835;28;19924;-85
2022/07/08 03:44:31;;;;;;;;;;;;;;;;;;5043041;28;20003;-86
2022/07/08 03:46:56;;;;;;;;;;;;;;;;;;5060806;28;19916;-85
2022/07/08 03:49:21;;;;;;;;;;;;;;;;;;5060950;28;19974;-86
2022/07/08 03:51:47;;;;;;;;;;;;;;;;;;5062686;28;19922;-85
2022/07/08 03:54:12;;;;;;;;;;;;;;;;;;5072141;28;19970;-85
2022/07/08 03:56:37;;;;;;;;;;;;;;;;;;5063394;28;19917;-85
2022/07/08 03:59:03;;;;;;;;;;;;;;;;;;5061022;28;19917;-86
2022/07/08 04:01:28;;;;;;;;;;;;;;;;;;5062437;28;19917;-85
2022/07/08 04:03:53;;;;;;;;;;;;;;;;;;5062412;28;19917;-86
2022/07/08 04:06:19;;;;;;;;;;;;;;;;;;5061000;28;20305;-86
2022/07/08 04:08:44;;;;;;;;;;;;;;;;;;5063767;28;20400;-85
2022/07/08 04:11:10;;;;;;;;;;;;;;;;;;5064275;28;19917;-85
2022/07/08 04:13:37;;;;;;;;;;;;;;;;;;5075419;28;19913;-87
2022/07/08 04:16:05;;;;;;;;;;;;;;;;;;5072243;28;19917;-86
2022/07/08 04:18:31;;;;;;;;;;;;;;;;;;5063395;28;20323;-85
2022/07/08 04:20:56;;;;;;;;;;;;;;;;;;5059462;28;19916;-86
2022/07/08 04:23:21;;;;;;;;;;;;;;;;;;5060836;28;19917;-85
2022/07/08 04:25:47;;;;;;;;;;;;;;;;;;5061301;28;19923;-85
2022/07/08 04:28:12;;;;;;;;;;;;;;;;;;5062359;28;19916;-85
2022/07/08 04:30:37;;;;;;;;;;;;;;;;;;5060632;28;20318;-86
2022/07/08 04:33:03;;;;;;;;;;;;;;;;;;5066200;28;19947;-85
2022/07/08 04:35:28;;;;;;;;;;;;;;;;;;5058797;28;19917;-86
2022/07/08 04:37:53;;;;;;;;;;;;;;;;;;5059477;28;20291;-87
2022/07/08 04:40:19;;;;;;;;;;;;;;;;;;5057241;28;20406;-85
2022/07/08 04:42:44;;;;;;;;;;;;;;;;;;5058032;28;20019;-87
2022/07/08 04:45:10;;;;;;;;;;;;;;;;;;5056325;28;19921;-85
2022/07/08 04:47:35;;;;;;;;;;;;;;;;;;5057502;28;20235;-86
2022/07/08 04:50:00;;;;;;;;;;;;;;;;;;5057576;28;19917;-86
2022/07/08 04:52:26;;;;;;;;;;;;;;;;;;5058109;28;19916;-85
2022/07/08 04:54:51;;;;;;;;;;;;;;;;;;5071472;28;19927;-85
2022/07/08 04:57:16;;;;;;;;;;;;;;;;;;5072013;28;19917;-86
2022/07/08 04:59:42;;;;;;;;;;;;;;;;;;5063016;28;19916;-85
2022/07/08 05:02:07;;;;;;;;;;;;;;;;;;5058460;28;19916;-85
2022/07/08 05:04:32;;;;;;;;;;;;;;;;;;5056878;28;19947;-85
2022/07/08 05:06:58;;;;;;;;;;;;;;;;;;5061301;28;19912;-83
2022/07/08 05:09:23;;;;;;;;;;;;;;;;;;5065937;28;20254;-84
2022/07/08 05:11:48;;;;;;;;;;;;;;;;;;5060432;28;19928;-85
2022/07/08 05:14:14;;;;;;;;;;;;;;;;;;5061145;28;20011;-83
2022/07/08 05:16:40;;;;;;;;;;;;;;;;;;5073768;28;19928;-86
2022/07/08 05:19:06;;;;;;;;;;;;;;;;;;5061324;28;19917;-85
2022/07/08 05:21:31;;;;;;;;;;;;;;;;;;5060974;28;20405;-84
2022/07/08 05:23:56;;;;;;;;;;;;;;;;;;5060678;28;19921;-84
2022/07/08 05:26:22;;;;;;;;;;;;;;;;;;5062673;28;19913;-84
2022/07/08 05:28:47;;;;;;;;;;;;;;;;;;5044389;28;19923;-83
2022/07/08 05:31:12;;;;;;;;;;;;;;;;;;5061016;28;19917;-84
2022/07/08 05:33:38;;;;;;;;;;;;;;;;;;5059822;28;20055;-85
2022/07/08 05:36:05;;;;;;;;;;;;;;;;;;5067452;28;19921;-83
2022/07/08 05:38:30;;;;;;;;;;;;;;;;;;5063735;28;19924;-85
2022/07/08 05:40:55;;;;;;;;;;;;;;;;;;5040182;28;19913;-84
2022/07/08 05:43:21;;;;;;;;;;;;;;;;;;5058855;28;19921;-83
2022/07/08 05:45:46;;;;;;;;;;;;;;;;;;5040860;28;19916;-83
2022/07/08 05:48:11;;;;;;;;;;;;;;;;;;5058416;28;19924;-84
2022/07/08 05:50:36;;;;;;;;;;;;;;;;;;5058742;28;19967;-83
2022/07/08 05:53:02;;;;;;;;;;;;;;;;;;5057348;28;19917;-84
2022/07/08 05:55:28;;;;;;;;;;;;;;;;;;5062487;28;19916;-84
2022/07/08 05:57:53;;;;;;;;;;;;;;;;;;5064702;28;19920;-85
2022/07/08 06:00:19;;;;;;;;;;;;;;;;;;5058281;28;20278;-84
2022/07/08 06:02:44;;;;;;;;;;;;;;;;;;5059031;28;19916;-83
2022/07/08 06:05:10;;;;;;;;;;;;;;;;;;5040701;28;19947;-84
2022/07/08 06:07:37;;;;;;;;;;;;;;;;;;5058767;28;19939;-84
2022/07/08 06:10:02;;;;;;;;;;;;;;;;;;5039952;28;19921;-83
2022/07/08 06:12:28;;;;;;;;;;;;;;;;;;5058978;28;19974;-85
2022/07/08 06:14:53;;;;;;;;;;;;;;;;;;5057689;28;19917;-83
2022/07/08 06:17:18;;;;;;;;;;;;;;;;;;5066558;28;19916;-84
2022/07/08 06:19:46;;;;;;;;;;;;;;;;;;5063756;28;20000;-84
2022/07/08 06:22:12;;;;;;;;;;;;;;;;;;5041695;28;19916;-85
2022/07/08 06:24:39;;;;;;;;;;;;;;;;;;5058220;28;19917;-86
2022/07/08 06:27:05;;;;;;;;;;;;;;;;;;5056377;28;19986;-83
2022/07/08 06:29:31;;;;;;;;;;;;;;;;;;5058066;28;19921;-85
2022/07/08 06:31:56;;;;;;;;;;;;;;;;;;5058058;28;19917;-85
2022/07/08 06:34:22;;;;;;;;;;;;;;;;;;5057669;28;19924;-85
2022/07/08 06:36:49;;;;;;;;;;;;;;;;;;5062194;28;19921;-86
2022/07/08 06:39:14;;;;;;;;;;;;;;;;;;5063510;28;19924;-84
2022/07/08 06:41:40;;;;;;;;;;;;;;;;;;5045244;28;19917;-85
2022/07/08 06:44:05;;;;;;;;;;;;;;;;;;5039043;28;19940;-83
2022/07/08 06:46:32;;;;;;;;;;;;;;;;;;5038871;28;19980;-83
2022/07/08 06:48:57;;;;;;;;;;;;;;;;;;5040234;28;20365;-83
2022/07/08 06:51:23;;;;;;;;;;;;;;;;;;5019564;28;19971;-83
2022/07/08 06:56:32;;;;;;;;;;;;;;;;;;5040172;28;20028;-83
2022/07/08 06:58:58;;;;;;;;;;;;;;;;;;5044601;28;20331;-84
2022/07/08 07:01:23;;;;;;;;;;;;;;;;;;5022363;28;19917;-81
2022/07/08 07:03:48;;;;;;;;;;;;;;;;;;5020663;28;20396;-81
2022/07/08 07:06:14;;;;;;;;;;;;;;;;;;5037332;28;19952;-85
2022/07/08 07:08:40;;;;;;;;;;;;;;;;;;5018617;28;20338;-84
2022/07/08 07:11:10;;;;;;;;;;;;;;;;;;5018786;28;19918;-86
2022/07/08 07:13:47;;;;;;;;;;;;;;;;;;5035142;28;19917;-84
2022/07/08 07:16:13;;;;;;;;;;;;;;;;;;5035324;28;19919;-83
2022/07/08 07:18:38;;;;;;;;;;;;;;;;;;5044691;28;19976;-84
2022/07/08 07:21:04;;;;;;;;;;;;;;;;;;5043371;28;19919;-84
2022/07/08 07:23:29;;;;;;;;;;;;;;;;;;5036866;28;20007;-81
2022/07/08 07:25:55;;;;;;;;;;;;;;;;;;5034913;28;19917;-81
2022/07/08 07:28:20;;;;;;;;;;;;;;;;;;5046259;28;19920;-82
2022/07/08 07:30:46;;;;;;;;;;;;;;;;;;5053091;28;20294;-82
2022/07/08 07:33:11;;;;;;;;;;;;;;;;;;5054077;28;19966;-82
2022/07/08 07:35:37;;;;;;;;;;;;;;;;;;5055401;28;20366;-82
2022/07/08 07:38:02;;;;;;;;;;;;;;;;;;5060037;28;19905;-81
2022/07/08 07:40:28;;;;;;;;;;;;;;;;;;5042978;28;20258;-82
2022/07/08 07:42:53;;;;;;;;;;;;;;;;;;5037132;28;20254;-82
2022/07/08 07:45:20;;;;;;;;;;;;;;;;;;5055012;28;20374;-81
2022/07/08 07:47:45;;;;;;;;;;;;;;;;;;5055287;28;19917;-82
2022/07/08 07:50:12;;;;;;;;;;;;;;;;;;5055136;28;19956;-81
2022/07/08 07:52:37;;;;;;;;;;;;;;;;;;5053058;28;19917;-82
2022/07/08 07:55:03;;;;;;;;;;;;;;;;;;5054706;28;20534;-83
2022/07/08 07:57:28;;;;;;;;;;;;;;;;;;5055285;28;20285;-83
2022/07/08 07:59:53;;;;;;;;;;;;;;;;;;5060588;28;19921;-83
2022/07/08 08:02:19;;;;;;;;;;;;;;;;;;5055036;28;19928;-82
2022/07/08 08:04:45;;;;;;;;;;;;;;;;;;5055254;28;19975;-81
2022/07/08 08:07:10;;;;;;;;;;;;;;;;;;5055357;28;19916;-86
2022/07/08 08:09:35;;;;;;;;;;;;;;;;;;5036784;28;19917;-81
2022/07/08 08:12:01;;;;;;;;;;;;;;;;;;5054157;28;19920;-82
2022/07/08 08:14:26;;;;;;;;;;;;;;;;;;5057351;28;20014;-85
2022/07/08 08:16:52;;;;;;;;;;;;;;;;;;5058503;28;19917;-82
2022/07/08 08:19:17;;;;;;;;;;;;;;;;;;5050806;28;19905;-81
2022/07/08 08:21:42;;;;;;;;;;;;;;;;;;5042200;28;19943;-82
2022/07/08 08:24:08;;;;;;;;;;;;;;;;;;5058213;28;20297;-82
2022/07/08 08:26:33;;;;;;;;;;;;;;;;;;5057809;28;19917;-81
2022/07/08 08:28:58;;;;;;;;;;;;;;;;;;5039113;28;19917;-82
2022/07/08 08:31:24;;;;;;;;;;;;;;;;;;5058315;28;19916;-80
2022/07/08 08:33:50;;;;;;;;;;;;;;;;;;5057307;28;19970;-80
2022/07/08 08:36:15;;;;;;;;;;;;;;;;;;5057395;28;19924;-80
2022/07/08 08:38:40;;;;;;;;;;;;;;;;;;5060000;28;19947;-81
2022/07/08 08:41:06;;;;;;;;;;;;;;;;;;5044680;28;19924;-82
2022/07/08 08:43:31;;;;;;;;;;;;;;;;;;5057339;28;19921;-80
2022/07/08 08:45:56;;;;;;;;;;;;;;;;;;5039927;28;19917;-80
2022/07/08 08:48:22;;;;;;;;;;;;;;;;;;5057290;28;20330;-80
2022/07/08 08:50:53;;;;;;;;;;;;;;;;;;5039661;28;19916;-81
2022/07/08 08:53:30;;;;;;;;;;;;;;;;;;5040368;28;20016;-80
2022/07/08 08:55:55;;;;;;;;;;;;;;;;;;5039974;28;19972;-80
2022/07/08 08:58:21;;;;;;;;;;;;;;;;;;5058106;28;20023;-80
2022/07/08 09:00:46;;;;;;;;;;;;;;;;;;5040416;28;19917;-81
2022/07/08 09:03:11;;;;;;;;;;;;;;;;;;5057002;28;19917;-80
2022/07/08 09:05:37;;;;;;;;;;;;;;;;;;5040647;28;19917;-81
2022/07/08 09:08:02;;;;;;;;;;;;;;;;;;5058607;28;20239;-81
2022/07/08 09:10:28;;;;;;;;;;;;;;;;;;5041133;28;20201;-81
2022/07/08 09:13:06;;;;;;;;;;;;;;;;;;5058410;28;19924;-81
2022/07/08 09:15:41;;;;;;;;;;;;;;;;;;5041750;28;19920;-81
2022/07/08 09:18:08;;;;;;;;;;;;;;;;;;5065913;28;19952;-81
2022/07/08 09:20:40;;;;;;;;;;;;;;;;;;5025982;28;19917;-80
2022/07/08 09:23:08;;;;;;;;;;;;;;;;;;5059225;28;19923;-80
2022/07/08 09:25:33;;;;;;;;;;;;;;;;;;5058696;28;19920;-79
2022/07/08 09:27:59;;;;;;;;;;;;;;;;;;5059072;28;20263;-80
2022/07/08 09:30:30;;;;;;;;;;;;;;;;;;5058555;28;19924;-81
2022/07/08 09:32:59;;;;;;;;;;;;;;;;;;5057949;28;19924;-82
2022/07/08 09:35:30;;;;;;;;;;;;;;;;;;5023752;28;19970;-80
2022/07/08 09:37:55;;;;;;;;;;;;;;;;;;5044724;28;19921;-81
2022/07/08 09:40:20;;;;;;;;;;;;;;;;;;5064482;28;19928;-79
2022/07/08 09:42:46;;;;;;;;;;;;;;;;;;5059492;28;19920;-82
2022/07/08 09:45:11;;;;;;;;;;;;;;;;;;5060345;28;19985;-81
2022/07/08 09:47:38;;;;;;;;;;;;;;;;;;5043513;28;19963;-81
2022/07/08 09:50:03;;;;;;;;;;;;;;;;;;5057881;28;19940;-81
2022/07/08 09:52:29;;;;;;;;;;;;;;;;;;5041890;28;19921;-80
2022/07/08 09:55:01;;;;;;;;;;;;;;;;;;5042888;28;20015;-81
2022/07/08 09:57:28;;;;;;;;;;;;;;;;;;5039721;28;20115;-81
2022/07/08 09:59:54;;;;;;;;;;;;;;;;;;5065765;28;19944;-82
2022/07/08 10:02:20;;;;;;;;;;;;;;;;;;5059433;28;20327;-81
2022/07/08 10:04:47;;;;;;;;;;;;;;;;;;5059245;28;19999;-82
2022/07/08 10:07:12;;;;;;;;;;;;;;;;;;5060334;28;19913;-80
2022/07/08 10:09:38;;;;;;;;;;;;;;;;;;5059409;28;20319;-82
2022/07/08 10:12:03;;;;;;;;;;;;;;;;;;5060048;28;20247;-81
2022/07/08 10:14:28;;;;;;;;;;;;;;;;;;5041709;28;19920;-81
2022/07/08 10:16:54;;;;;;;;;;;;;;;;;;5042324;28;20007;-79
2022/07/08 10:19:22;;;;;;;;;;;;;;;;;;5044397;28;19928;-81
2022/07/08 10:21:50;;;;;;;;;;;;;;;;;;5062616;28;20338;-81
2022/07/08 10:24:20;;;;;;;;;;;;;;;;;;5039206;28;20385;-81
2022/07/08 10:26:45;;;;;;;;;;;;;;;;;;5039544;28;19912;-81
2022/07/08 10:29:11;;;;;;;;;;;;;;;;;;5058258;28;19999;-83
2022/07/08 10:31:47;;;;;;;;;;;;;;;;;;5039654;28;19913;-77
2022/07/08 10:34:13;;;;;;;;;;;;;;;;;;5056973;28;20361;-78
2022/07/08 10:36:45;;;;;;;;;;;;;;;;;;5055450;28;19924;-80
2022/07/08 10:39:31;;;;;;;;;;;;;;;;;;5059403;28;19913;-81
2022/07/08 10:41:59;;;;;;;;;;;;;;;;;;5049612;28;19932;-80
2022/07/08 10:44:43;;;;;;;;;;;;;;;;;;5061420;28;19917;-82
2022/07/08 10:47:09;;;;;;;;;;;;;;;;;;5058668;28;20163;-82
2022/07/08 10:49:41;;;;;;;;;;;;;;;;;;5057760;28;20334;-81
2022/07/08 10:52:06;;;;;;;;;;;;;;;;;;5041055;28;19976;-82
2022/07/08 10:54:37;;;;;;;;;;;;;;;;;;5057500;28;19912;-81
2022/07/08 10:57:22;;;;;;;;;;;;;;;;;;5039682;28;19923;-82
2022/07/08 11:00:14;;;;;;;;;;;;;;;;;;5044622;28;19913;-81
2022/07/08 11:02:43;;;;;;;;;;;;;;;;;;5064021;28;19915;-81
2022/07/08 11:05:28;;;;;;;;;;;;;;;;;;5057083;28;19923;-83
2022/07/08 11:08:13;;;;;;;;;;;;;;;;;;5055769;28;20270;-82
2022/07/08 11:10:38;;;;;;;;;;;;;;;;;;5055217;28;19917;-80
2022/07/08 11:13:04;;;;;;;;;;;;;;;;;;5037001;28;19917;-81
2022/07/08 11:15:29;;;;;;;;;;;;;;;;;;5037425;28;19917;-80
2022/07/08 11:17:54;;;;;;;;;;;;;;;;;;5036781;28;19920;-78
2022/07/08 11:20:20;;;;;;;;;;;;;;;;;;5036421;28;19928;-80
2022/07/08 11:22:45;;;;;;;;;;;;;;;;;;5043909;28;19909;-86
2022/07/08 11:25:11;;;;;;;;;;;;;;;;;;5063058;28;19917;-88
2022/07/08 11:27:37;;;;;;;;;;;;;;;;;;5056318;28;19917;-85
2022/07/08 11:30:04;;;;;;;;;;;;;;;;;;5020349;28;20246;-85
2022/07/08 11:32:30;;;;;;;;;;;;;;;;;;5054648;28;20015;-86
2022/07/08 11:34:55;;;;;;;;;;;;;;;;;;5054761;28;20007;-85
2022/07/08 11:37:21;;;;;;;;;;;;;;;;;;5054776;28;20004;-84
2022/07/08 11:39:46;;;;;;;;;;;;;;;;;;5037231;28;20218;-83
2022/07/08 11:42:12;;;;;;;;;;;;;;;;;;5059195;28;19905;-83
2022/07/08 11:44:37;;;;;;;;;;;;;;;;;;5048083;28;20258;-84
2022/07/08 11:47:03;;;;;;;;;;;;;;;;;;5055713;28;19938;-84
2022/07/08 11:49:28;;;;;;;;;;;;;;;;;;5059202;28;20258;-85
2022/07/08 11:51:54;;;;;;;;;;;;;;;;;;5059033;28;20418;-82
2022/07/08 11:54:20;;;;;;;;;;;;;;;;;;5058546;28;20346;-85
2022/07/08 11:56:45;;;;;;;;;;;;;;;;;;5058715;28;19916;-85
2022/07/08 11:59:13;;;;;;;;;;;;;;;;;;5059389;28;20217;-86
2022/07/08 12:01:39;;;;;;;;;;;;;;;;;;5040666;28;19924;-83
2022/07/08 12:04:05;;;;;;;;;;;;;;;;;;5068472;28;20035;-83
2022/07/08 12:06:30;;;;;;;;;;;;;;;;;;5052305;28;19917;-85
2022/07/08 12:08:56;;;;;;;;;;;;;;;;;;5040669;28;19923;-84
2022/07/08 12:11:21;;;;;;;;;;;;;;;;;;5058297;28;19925;-86
2022/07/08 12:13:47;;;;;;;;;;;;;;;;;;5058975;28;20346;-84
2022/07/08 12:16:49;;;;;;;;;;;;;;;;;;5058441;28;19974;-83
2022/07/08 12:19:33;;;;;;;;;;;;;;;;;;4996346;28;20009;-84
2022/07/08 12:21:59;;;;;;;;;;;;;;;;;;5053417;28;19920;-84
2022/07/08 12:24:35;;;;;;;;;;;;;;;;;;5066991;28;20019;-84
2022/07/08 12:27:01;;;;;;;;;;;;;;;;;;5029265;28;20319;-84
2022/07/08 12:29:26;;;;;;;;;;;;;;;;;;5024250;28;19927;-86
2022/07/08 12:31:52;;;;;;;;;;;;;;;;;;5057313;28;20003;-84
2022/07/08 12:34:18;;;;;;;;;;;;;;;;;;5058023;28;19963;-84
2022/07/08 12:36:44;;;;;;;;;;;;;;;;;;5058206;28;19916;-85
2022/07/08 12:39:13;;;;;;;;;;;;;;;;;;5023333;28;19966;-84
2022/07/08 12:41:39;;;;;;;;;;;;;;;;;;5057428;28;19923;-83
2022/07/08 12:44:23;;;;;;;;;;;;;;;;;;5041895;28;19921;-85
2022/07/08 12:46:48;;;;;;;;;;;;;;;;;;5061888;28;20348;-84
2022/07/08 12:49:21;;;;;;;;;;;;;;;;;;5061706;28;19923;-84
2022/07/08 12:51:46;;;;;;;;;;;;;;;;;;5057669;28;19924;-84
2022/07/08 12:54:12;;;;;;;;;;;;;;;;;;5040209;28;19916;-85
2022/07/08 12:56:37;;;;;;;;;;;;;;;;;;5039550;28;19939;-85
2022/07/08 12:59:02;;;;;;;;;;;;;;;;;;5038500;28;19917;-84
2022/07/08 13:01:28;;;;;;;;;;;;;;;;;;5057142;28;20011;-84
2022/07/08 13:03:53;;;;;;;;;;;;;;;;;;5057228;28;20074;-85
2022/07/08 13:06:22;;;;;;;;;;;;;;;;;;5067593;28;19917;-83
2022/07/08 13:08:47;;;;;;;;;;;;;;;;;;5060602;28;19916;-85
2022/07/08 13:11:12;;;;;;;;;;;;;;;;;;5057310;28;19917;-85
2022/07/08 13:13:38;;;;;;;;;;;;;;;;;;5057217;28;19916;-86
2022/07/08 13:16:03;;;;;;;;;;;;;;;;;;5057151;28;19916;-84
2022/07/08 13:18:28;;;;;;;;;;;;;;;;;;5056785;28;19917;-85
2022/07/08 13:20:54;;;;;;;;;;;;;;;;;;5057379;28;20285;-85
2022/07/08 13:23:19;;;;;;;;;;;;;;;;;;5056622;28;20308;-85
2022/07/08 13:25:46;;;;;;;;;;;;;;;;;;5063814;28;19931;-84
2022/07/08 13:28:11;;;;;;;;;;;;;;;;;;5063027;28;19921;-85
2022/07/08 13:30:36;;;;;;;;;;;;;;;;;;5038879;28;19920;-89
2022/07/08 13:33:02;;;;;;;;;;;;;;;;;;5056627;28;19917;-84
2022/07/08 13:35:27;;;;;;;;;;;;;;;;;;5056948;28;20382;-84
2022/07/08 13:37:53;;;;;;;;;;;;;;;;;;5056914;28;20007;-83
2022/07/08 13:40:19;;;;;;;;;;;;;;;;;;5038428;28;20297;-85
2022/07/08 13:42:44;;;;;;;;;;;;;;;;;;5038509;28;20389;-84
2022/07/08 13:45:09;;;;;;;;;;;;;;;;;;5056095;28;19916;-85
2022/07/08 13:47:35;;;;;;;;;;;;;;;;;;5067325;28;19921;-83
2022/07/08 13:50:00;;;;;;;;;;;;;;;;;;5040144;28;19913;-86
2022/07/08 13:52:28;;;;;;;;;;;;;;;;;;5056309;28;19921;-84
2022/07/08 13:54:53;;;;;;;;;;;;;;;;;;5039640;28;19912;-83
2022/07/08 13:57:19;;;;;;;;;;;;;;;;;;5055600;28;19927;-85
2022/07/08 13:59:44;;;;;;;;;;;;;;;;;;5055685;28;19966;-85
2022/07/08 14:02:09;;;;;;;;;;;;;;;;;;5056224;28;19923;-85
2022/07/08 14:04:35;;;;;;;;;;;;;;;;;;5056165;28;19956;-83
2022/07/08 14:07:01;;;;;;;;;;;;;;;;;;5044953;28;19904;-84
2022/07/08 14:09:27;;;;;;;;;;;;;;;;;;5066765;28;19921;-85
2022/07/08 14:11:52;;;;;;;;;;;;;;;;;;5021620;28;19924;-86
2022/07/08 14:14:17;;;;;;;;;;;;;;;;;;5060824;28;20229;-85
2022/07/08 14:16:43;;;;;;;;;;;;;;;;;;5056111;28;20341;-85
2022/07/08 14:19:08;;;;;;;;;;;;;;;;;;5055915;28;19917;-84
2022/07/08 14:21:33;;;;;;;;;;;;;;;;;;5055625;28;19916;-85
2022/07/08 14:23:59;;;;;;;;;;;;;;;;;;5037995;28;19917;-86
2022/07/08 14:26:24;;;;;;;;;;;;;;;;;;5055817;28;19952;-83
2022/07/08 14:28:50;;;;;;;;;;;;;;;;;;5064569;28;19920;-86
2022/07/08 14:31:15;;;;;;;;;;;;;;;;;;5057196;28;19923;-86
2022/07/08 14:33:40;;;;;;;;;;;;;;;;;;5055851;28;19923;-85
2022/07/08 14:36:06;;;;;;;;;;;;;;;;;;5055669;28;19916;-86
2022/07/08 14:38:31;;;;;;;;;;;;;;;;;;5038354;28;20293;-85
2022/07/08 14:40:57;;;;;;;;;;;;;;;;;;5055508;28;19923;-86
2022/07/08 14:43:22;;;;;;;;;;;;;;;;;;5020662;28;19927;-87
2022/07/08 14:45:49;;;;;;;;;;;;;;;;;;5055162;28;19940;-85
2022/07/08 14:48:14;;;;;;;;;;;;;;;;;;5059999;28;19919;-85
2022/07/08 14:50:39;;;;;;;;;;;;;;;;;;5061305;28;20313;-84
2022/07/08 14:53:05;;;;;;;;;;;;;;;;;;5055364;28;19916;-85
2022/07/08 14:55:30;;;;;;;;;;;;;;;;;;5061034;28;19947;-86
2022/07/08 14:57:55;;;;;;;;;;;;;;;;;;5038052;28;20373;-85
2022/07/08 15:00:21;;;;;;;;;;;;;;;;;;5037016;28;20015;-87
2022/07/08 15:02:46;;;;;;;;;;;;;;;;;;5055096;28;19967;-85
2022/07/08 15:05:11;;;;;;;;;;;;;;;;;;5055113;28;20007;-86
2022/07/08 15:07:36;;;;;;;;;;;;;;;;;;5054808;28;19956;-86
2022/07/08 15:10:02;;;;;;;;;;;;;;;;;;5066877;28;19944;-83
2022/07/08 15:12:27;;;;;;;;;;;;;;;;;;5038641;28;20310;-85
2022/07/08 15:14:53;;;;;;;;;;;;;;;;;;5037138;28;19963;-86
2022/07/08 15:17:18;;;;;;;;;;;;;;;;;;5036770;28;19975;-86
2022/07/08 15:19:43;;;;;;;;;;;;;;;;;;5058339;28;19917;-85
2022/07/08 15:22:08;;;;;;;;;;;;;;;;;;5054345;28;20268;-86
2022/07/08 15:24:34;;;;;;;;;;;;;;;;;;5054909;28;19982;-86
2022/07/08 15:26:59;;;;;;;;;;;;;;;;;;5054996;28;20350;-86
2022/07/08 15:29:24;;;;;;;;;;;;;;;;;;5059343;28;20353;-84
2022/07/08 15:31:50;;;;;;;;;;;;;;;;;;5061121;28;20252;-86
2022/07/08 15:34:15;;;;;;;;;;;;;;;;;;5040509;28;19947;-86
2022/07/08 15:36:40;;;;;;;;;;;;;;;;;;5059109;28;19979;-85
2022/07/08 15:39:06;;;;;;;;;;;;;;;;;;5039560;28;19939;-83
2022/07/08 15:41:31;;;;;;;;;;;;;;;;;;5047227;28;20251;-84
2022/07/08 15:43:57;;;;;;;;;;;;;;;;;;5059704;28;20339;-85
2022/07/08 15:46:23;;;;;;;;;;;;;;;;;;5037785;28;19955;-86
2022/07/08 15:48:49;;;;;;;;;;;;;;;;;;5054642;28;20262;-85
2022/07/08 15:51:14;;;;;;;;;;;;;;;;;;5046962;28;20019;-83
2022/07/08 15:53:39;;;;;;;;;;;;;;;;;;5056180;28;20327;-85
2022/07/08 15:56:05;;;;;;;;;;;;;;;;;;5036276;28;19924;-85
2022/07/08 15:58:30;;;;;;;;;;;;;;;;;;5054708;28;19924;-86
2022/07/08 16:00:56;;;;;;;;;;;;;;;;;;5056846;28;19920;-84
2022/07/08 16:03:21;;;;;;;;;;;;;;;;;;5055691;28;19923;-84
2022/07/08 16:05:47;;;;;;;;;;;;;;;;;;5058629;28;19916;-87
2022/07/08 16:08:12;;;;;;;;;;;;;;;;;;5057846;28;19916;-85
2022/07/08 16:10:37;;;;;;;;;;;;;;;;;;5056441;28;19910;-85
2022/07/08 16:13:02;;;;;;;;;;;;;;;;;;5062966;28;19992;-84
2022/07/08 16:15:28;;;;;;;;;;;;;;;;;;5055520;28;19917;-85
2022/07/08 16:17:54;;;;;;;;;;;;;;;;;;5054654;28;19916;-85
2022/07/08 16:20:19;;;;;;;;;;;;;;;;;;5054507;28;19931;-87
2022/07/08 16:22:45;;;;;;;;;;;;;;;;;;5055060;28;20272;-87
2022/07/08 16:25:10;;;;;;;;;;;;;;;;;;5055402;28;19924;-86
2022/07/08 16:27:35;;;;;;;;;;;;;;;;;;5057855;28;19987;-83
2022/07/08 16:30:01;;;;;;;;;;;;;;;;;;5064293;28;19917;-85
2022/07/08 16:32:26;;;;;;;;;;;;;;;;;;5047132;28;20333;-85
2022/07/08 16:34:53;;;;;;;;;;;;;;;;;;5066831;28;20366;-84
2022/07/08 16:37:18;;;;;;;;;;;;;;;;;;5041003;28;19923;-86
2022/07/08 16:39:43;;;;;;;;;;;;;;;;;;5058165;28;20007;-85
2022/07/08 16:42:09;;;;;;;;;;;;;;;;;;5045861;28;19917;-85